sensor_id;sensor_type;location;lat;lon;timestamp;P1;durP1;ratioP1;P2;durP2;ratioP2
33403;SDS011;19751;40.274;18.268;2024-01-27T00:01:36;28.30;;;17.70;;
33403;SDS011;19751;40.274;18.268;2024-01-27T00:04:01;25.10;;;16.50;;
33403;SDS011;19751;40.274;18.268;2024-01-27T00:06:27;25.58;;;16.55;;
33403;SDS011;19751;40.274;18.268;2024-01-27T00:08:53;27.77;;;17.10;;
33403;SDS011;19751;40.274;18.268;2024-01-27T00:11:18;28.63;;;18.02;;
33403;SDS011;19751;40.274;18.268;2024-01-27T00:13:44;25.58;;;16.90;;
33403;SDS011;19751;40.274;18.268;2024-01-27T00:16:11;26.58;;;17.05;;
33403;SDS011;19751;40.274;18.268;2024-01-27T00:18:37;26.92;;;17.95;;
33403;SDS011;19751;40.274;18.268;2024-01-27T00:21:03;31.63;;;18.05;;
33403;SDS011;19751;40.274;18.268;2024-01-27T00:23:29;31.38;;;19.30;;
33403;SDS011;19751;40.274;18.268;2024-01-27T00:25:55;23.67;;;17.77;;
33403;SDS011;19751;40.274;18.268;2024-01-27T00:28:21;28.25;;;19.23;;
33403;SDS011;19751;40.274;18.268;2024-01-27T00:30:47;26.30;;;17.95;;
33403;SDS011;19751;40.274;18.268;2024-01-27T00:33:12;35.03;;;21.17;;
33403;SDS011;19751;40.274;18.268;2024-01-27T00:35:38;33.08;;;20.85;;
33403;SDS011;19751;40.274;18.268;2024-01-27T00:38:04;33.83;;;21.77;;
33403;SDS011;19751;40.274;18.268;2024-01-27T00:40:29;42.25;;;25.92;;
33403;SDS011;19751;40.274;18.268;2024-01-27T00:42:55;36.70;;;23.58;;
33403;SDS011;19751;40.274;18.268;2024-01-27T00:45:20;35.33;;;22.45;;
33403;SDS011;19751;40.274;18.268;2024-01-27T00:47:48;33.20;;;20.02;;
33403;SDS011;19751;40.274;18.268;2024-01-27T00:50:15;36.33;;;20.58;;
33403;SDS011;19751;40.274;18.268;2024-01-27T00:52:40;38.15;;;24.98;;
33403;SDS011;19751;40.274;18.268;2024-01-27T00:55:06;39.75;;;28.02;;
33403;SDS011;19751;40.274;18.268;2024-01-27T00:57:32;53.30;;;41.40;;
33403;SDS011;19751;40.274;18.268;2024-01-27T00:59:57;50.97;;;36.17;;
33403;SDS011;19751;40.274;18.268;2024-01-27T01:02:23;41.47;;;27.52;;
33403;SDS011;19751;40.274;18.268;2024-01-27T01:04:49;29.38;;;20.48;;
33403;SDS011;19751;40.274;18.268;2024-01-27T01:07:14;26.20;;;17.58;;
33403;SDS011;19751;40.274;18.268;2024-01-27T01:09:40;25.73;;;16.65;;
33403;SDS011;19751;40.274;18.268;2024-01-27T01:12:06;19.42;;;15.52;;
33403;SDS011;19751;40.274;18.268;2024-01-27T01:14:31;24.75;;;16.33;;
33403;SDS011;19751;40.274;18.268;2024-01-27T01:16:57;31.40;;;17.50;;
33403;SDS011;19751;40.274;18.268;2024-01-27T01:19:23;26.02;;;16.25;;
33403;SDS011;19751;40.274;18.268;2024-01-27T01:21:48;24.55;;;15.80;;
33403;SDS011;19751;40.274;18.268;2024-01-27T01:24:14;24.02;;;16.23;;
33403;SDS011;19751;40.274;18.268;2024-01-27T01:26:40;26.60;;;18.15;;
33403;SDS011;19751;40.274;18.268;2024-01-27T01:29:05;23.60;;;16.30;;
33403;SDS011;19751;40.274;18.268;2024-01-27T01:31:31;24.45;;;16.42;;
33403;SDS011;19751;40.274;18.268;2024-01-27T01:33:57;24.05;;;16.05;;
33403;SDS011;19751;40.274;18.268;2024-01-27T01:36:23;30.90;;;18.30;;
33403;SDS011;19751;40.274;18.268;2024-01-27T01:38:48;28.73;;;18.75;;
33403;SDS011;19751;40.274;18.268;2024-01-27T01:41:14;35.95;;;20.90;;
33403;SDS011;19751;40.274;18.268;2024-01-27T01:43:40;36.28;;;19.80;;
33403;SDS011;19751;40.274;18.268;2024-01-27T01:46:05;27.95;;;19.38;;
33403;SDS011;19751;40.274;18.268;2024-01-27T01:48:31;29.17;;;18.80;;
33403;SDS011;19751;40.274;18.268;2024-01-27T01:50:57;36.50;;;19.70;;
33403;SDS011;19751;40.274;18.268;2024-01-27T01:53:23;31.00;;;20.30;;
33403;SDS011;19751;40.274;18.268;2024-01-27T01:55:49;31.73;;;19.88;;
33403;SDS011;19751;40.274;18.268;2024-01-27T01:58:15;34.80;;;21.23;;
33403;SDS011;19751;40.274;18.268;2024-01-27T02:00:41;32.05;;;21.70;;
33403;SDS011;19751;40.274;18.268;2024-01-27T02:03:11;32.38;;;21.88;;
33403;SDS011;19751;40.274;18.268;2024-01-27T02:05:37;31.17;;;21.02;;
33403;SDS011;19751;40.274;18.268;2024-01-27T02:08:03;32.42;;;20.05;;
33403;SDS011;19751;40.274;18.268;2024-01-27T02:10:29;28.63;;;18.75;;
33403;SDS011;19751;40.274;18.268;2024-01-27T02:13:01;34.38;;;20.42;;
33403;SDS011;19751;40.274;18.268;2024-01-27T02:15:42;35.28;;;19.60;;
33403;SDS011;19751;40.274;18.268;2024-01-27T02:18:07;31.83;;;20.00;;
33403;SDS011;19751;40.274;18.268;2024-01-27T02:20:33;31.77;;;19.83;;
33403;SDS011;19751;40.274;18.268;2024-01-27T02:22:58;32.40;;;19.60;;
33403;SDS011;19751;40.274;18.268;2024-01-27T02:25:24;29.80;;;18.25;;
33403;SDS011;19751;40.274;18.268;2024-01-27T02:27:50;31.27;;;20.33;;
33403;SDS011;19751;40.274;18.268;2024-01-27T02:30:15;29.30;;;19.42;;
33403;SDS011;19751;40.274;18.268;2024-01-27T02:32:41;26.10;;;18.70;;
33403;SDS011;19751;40.274;18.268;2024-01-27T02:35:06;30.23;;;20.48;;
33403;SDS011;19751;40.274;18.268;2024-01-27T02:37:33;31.42;;;20.60;;
33403;SDS011;19751;40.274;18.268;2024-01-27T02:39:58;29.90;;;19.42;;
33403;SDS011;19751;40.274;18.268;2024-01-27T02:42:24;30.77;;;20.75;;
33403;SDS011;19751;40.274;18.268;2024-01-27T02:44:49;30.30;;;20.10;;
33403;SDS011;19751;40.274;18.268;2024-01-27T02:47:15;30.25;;;19.30;;
33403;SDS011;19751;40.274;18.268;2024-01-27T02:49:41;28.75;;;20.17;;
33403;SDS011;19751;40.274;18.268;2024-01-27T02:52:06;34.78;;;20.25;;
33403;SDS011;19751;40.274;18.268;2024-01-27T02:54:32;32.42;;;18.73;;
33403;SDS011;19751;40.274;18.268;2024-01-27T02:56:57;24.17;;;17.70;;
33403;SDS011;19751;40.274;18.268;2024-01-27T02:59:23;28.27;;;19.25;;
33403;SDS011;19751;40.274;18.268;2024-01-27T03:01:49;26.65;;;17.50;;
33403;SDS011;19751;40.274;18.268;2024-01-27T03:04:14;28.52;;;18.92;;
33403;SDS011;19751;40.274;18.268;2024-01-27T03:06:40;29.25;;;18.85;;
33403;SDS011;19751;40.274;18.268;2024-01-27T03:09:05;30.67;;;20.05;;
33403;SDS011;19751;40.274;18.268;2024-01-27T03:11:31;31.08;;;19.90;;
33403;SDS011;19751;40.274;18.268;2024-01-27T03:13:56;30.60;;;19.17;;
33403;SDS011;19751;40.274;18.268;2024-01-27T03:16:22;29.08;;;17.55;;
33403;SDS011;19751;40.274;18.268;2024-01-27T03:18:47;27.80;;;18.60;;
33403;SDS011;19751;40.274;18.268;2024-01-27T03:21:13;28.52;;;17.77;;
33403;SDS011;19751;40.274;18.268;2024-01-27T03:23:39;30.88;;;17.98;;
33403;SDS011;19751;40.274;18.268;2024-01-27T03:26:04;28.33;;;19.35;;
33403;SDS011;19751;40.274;18.268;2024-01-27T03:28:30;24.80;;;16.05;;
33403;SDS011;19751;40.274;18.268;2024-01-27T03:30:55;25.58;;;17.17;;
33403;SDS011;19751;40.274;18.268;2024-01-27T03:33:21;24.38;;;15.73;;
33403;SDS011;19751;40.274;18.268;2024-01-27T03:35:48;28.95;;;18.58;;
33403;SDS011;19751;40.274;18.268;2024-01-27T03:38:13;24.80;;;16.05;;
33403;SDS011;19751;40.274;18.268;2024-01-27T03:40:39;28.02;;;16.75;;
33403;SDS011;19751;40.274;18.268;2024-01-27T03:43:04;26.80;;;16.80;;
33403;SDS011;19751;40.274;18.268;2024-01-27T03:45:30;26.27;;;16.90;;
33403;SDS011;19751;40.274;18.268;2024-01-27T03:47:55;27.85;;;17.63;;
33403;SDS011;19751;40.274;18.268;2024-01-27T03:50:22;27.13;;;17.45;;
33403;SDS011;19751;40.274;18.268;2024-01-27T03:52:47;28.85;;;18.77;;
33403;SDS011;19751;40.274;18.268;2024-01-27T03:55:13;26.75;;;17.77;;
33403;SDS011;19751;40.274;18.268;2024-01-27T03:57:39;28.05;;;18.70;;
33403;SDS011;19751;40.274;18.268;2024-01-27T04:00:05;28.92;;;18.77;;
33403;SDS011;19751;40.274;18.268;2024-01-27T04:02:31;28.77;;;17.67;;
33403;SDS011;19751;40.274;18.268;2024-01-27T04:04:56;28.67;;;17.52;;
33403;SDS011;19751;40.274;18.268;2024-01-27T04:07:22;26.80;;;17.15;;
33403;SDS011;19751;40.274;18.268;2024-01-27T04:09:47;24.83;;;16.77;;
33403;SDS011;19751;40.274;18.268;2024-01-27T04:12:13;28.25;;;17.27;;
33403;SDS011;19751;40.274;18.268;2024-01-27T04:14:39;31.27;;;18.02;;
33403;SDS011;19751;40.274;18.268;2024-01-27T04:17:04;21.67;;;14.10;;
33403;SDS011;19751;40.274;18.268;2024-01-27T04:19:30;23.23;;;14.65;;
33403;SDS011;19751;40.274;18.268;2024-01-27T04:21:55;25.50;;;14.90;;
33403;SDS011;19751;40.274;18.268;2024-01-27T04:24:21;20.73;;;14.07;;
33403;SDS011;19751;40.274;18.268;2024-01-27T04:26:46;25.35;;;14.57;;
33403;SDS011;19751;40.274;18.268;2024-01-27T04:29:12;28.20;;;13.63;;
33403;SDS011;19751;40.274;18.268;2024-01-27T04:31:40;20.63;;;14.07;;
33403;SDS011;19751;40.274;18.268;2024-01-27T04:34:07;26.58;;;15.32;;
33403;SDS011;19751;40.274;18.268;2024-01-27T04:36:32;25.05;;;14.32;;
33403;SDS011;19751;40.274;18.268;2024-01-27T04:38:58;38.03;;;20.50;;
33403;SDS011;19751;40.274;18.268;2024-01-27T04:41:24;26.30;;;18.23;;
33403;SDS011;19751;40.274;18.268;2024-01-27T04:43:49;25.92;;;15.48;;
33403;SDS011;19751;40.274;18.268;2024-01-27T04:46:15;23.83;;;14.93;;
33403;SDS011;19751;40.274;18.268;2024-01-27T04:48:40;25.52;;;14.80;;
33403;SDS011;19751;40.274;18.268;2024-01-27T04:51:06;22.88;;;13.07;;
33403;SDS011;19751;40.274;18.268;2024-01-27T04:53:32;22.15;;;12.88;;
33403;SDS011;19751;40.274;18.268;2024-01-27T04:55:57;24.02;;;13.35;;
33403;SDS011;19751;40.274;18.268;2024-01-27T04:58:23;19.38;;;12.27;;
33403;SDS011;19751;40.274;18.268;2024-01-27T05:00:48;17.73;;;12.45;;
33403;SDS011;19751;40.274;18.268;2024-01-27T05:03:14;21.15;;;13.07;;
33403;SDS011;19751;40.274;18.268;2024-01-27T05:05:41;17.90;;;12.25;;
33403;SDS011;19751;40.274;18.268;2024-01-27T05:08:07;20.33;;;12.25;;
33403;SDS011;19751;40.274;18.268;2024-01-27T05:10:34;18.83;;;12.18;;
33403;SDS011;19751;40.274;18.268;2024-01-27T05:12:59;18.70;;;12.88;;
33403;SDS011;19751;40.274;18.268;2024-01-27T05:15:25;19.48;;;13.43;;
33403;SDS011;19751;40.274;18.268;2024-01-27T05:17:51;22.58;;;12.40;;
33403;SDS011;19751;40.274;18.268;2024-01-27T05:20:17;23.13;;;12.60;;
33403;SDS011;19751;40.274;18.268;2024-01-27T05:22:42;18.15;;;12.05;;
33403;SDS011;19751;40.274;18.268;2024-01-27T05:25:09;19.77;;;11.27;;
33403;SDS011;19751;40.274;18.268;2024-01-27T05:27:36;21.20;;;11.55;;
33403;SDS011;19751;40.274;18.268;2024-01-27T05:30:05;21.70;;;11.68;;
33403;SDS011;19751;40.274;18.268;2024-01-27T05:32:31;17.88;;;10.55;;
33403;SDS011;19751;40.274;18.268;2024-01-27T05:34:57;20.42;;;11.57;;
33403;SDS011;19751;40.274;18.268;2024-01-27T05:37:23;19.73;;;10.27;;
33403;SDS011;19751;40.274;18.268;2024-01-27T05:39:48;17.90;;;10.77;;
33403;SDS011;19751;40.274;18.268;2024-01-27T05:42:14;16.95;;;9.75;;
33403;SDS011;19751;40.274;18.268;2024-01-27T05:44:39;14.23;;;10.00;;
33403;SDS011;19751;40.274;18.268;2024-01-27T05:47:06;18.15;;;9.68;;
33403;SDS011;19751;40.274;18.268;2024-01-27T05:49:32;18.10;;;9.15;;
33403;SDS011;19751;40.274;18.268;2024-01-27T05:51:57;15.98;;;8.95;;
33403;SDS011;19751;40.274;18.268;2024-01-27T05:54:23;17.38;;;9.95;;
33403;SDS011;19751;40.274;18.268;2024-01-27T05:56:49;18.15;;;9.32;;
33403;SDS011;19751;40.274;18.268;2024-01-27T05:59:15;17.25;;;11.75;;
33403;SDS011;19751;40.274;18.268;2024-01-27T06:01:41;24.50;;;12.15;;
33403;SDS011;19751;40.274;18.268;2024-01-27T06:04:08;22.50;;;11.90;;
33403;SDS011;19751;40.274;18.268;2024-01-27T06:06:34;16.95;;;10.88;;
33403;SDS011;19751;40.274;18.268;2024-01-27T06:09:02;18.58;;;11.82;;
33403;SDS011;19751;40.274;18.268;2024-01-27T06:11:29;23.88;;;13.07;;
33403;SDS011;19751;40.274;18.268;2024-01-27T06:13:55;19.27;;;12.82;;
33403;SDS011;19751;40.274;18.268;2024-01-27T06:16:20;24.67;;;12.70;;
33403;SDS011;19751;40.274;18.268;2024-01-27T06:18:46;23.90;;;14.13;;
33403;SDS011;19751;40.274;18.268;2024-01-27T06:21:12;25.30;;;13.45;;
33403;SDS011;19751;40.274;18.268;2024-01-27T06:23:38;22.27;;;12.45;;
33403;SDS011;19751;40.274;18.268;2024-01-27T06:26:07;26.52;;;16.17;;
33403;SDS011;19751;40.274;18.268;2024-01-27T06:28:33;24.30;;;13.05;;
33403;SDS011;19751;40.274;18.268;2024-01-27T06:31:00;22.90;;;13.68;;
33403;SDS011;19751;40.274;18.268;2024-01-27T06:33:26;24.17;;;13.60;;
33403;SDS011;19751;40.274;18.268;2024-01-27T06:35:51;26.63;;;16.42;;
33403;SDS011;19751;40.274;18.268;2024-01-27T06:38:17;30.73;;;17.08;;
33403;SDS011;19751;40.274;18.268;2024-01-27T06:40:42;29.33;;;16.55;;
33403;SDS011;19751;40.274;18.268;2024-01-27T06:43:10;27.23;;;17.65;;
33403;SDS011;19751;40.274;18.268;2024-01-27T06:45:37;25.73;;;16.02;;
33403;SDS011;19751;40.274;18.268;2024-01-27T06:48:03;25.45;;;16.05;;
33403;SDS011;19751;40.274;18.268;2024-01-27T06:50:29;25.40;;;15.57;;
33403;SDS011;19751;40.274;18.268;2024-01-27T06:52:55;24.58;;;14.45;;
33403;SDS011;19751;40.274;18.268;2024-01-27T06:55:21;24.13;;;15.88;;
33403;SDS011;19751;40.274;18.268;2024-01-27T06:57:46;28.38;;;18.17;;
33403;SDS011;19751;40.274;18.268;2024-01-27T07:00:12;33.00;;;21.45;;
33403;SDS011;19751;40.274;18.268;2024-01-27T07:02:41;27.02;;;18.02;;
33403;SDS011;19751;40.274;18.268;2024-01-27T07:05:08;34.55;;;18.50;;
33403;SDS011;19751;40.274;18.268;2024-01-27T07:07:34;29.45;;;15.90;;
33403;SDS011;19751;40.274;18.268;2024-01-27T07:09:59;27.58;;;15.65;;
33403;SDS011;19751;40.274;18.268;2024-01-27T07:12:25;28.60;;;15.60;;
33403;SDS011;19751;40.274;18.268;2024-01-27T07:14:51;26.45;;;14.52;;
33403;SDS011;19751;40.274;18.268;2024-01-27T07:17:17;22.40;;;14.60;;
33403;SDS011;19751;40.274;18.268;2024-01-27T07:19:43;26.02;;;16.08;;
33403;SDS011;19751;40.274;18.268;2024-01-27T07:22:09;25.63;;;16.42;;
33403;SDS011;19751;40.274;18.268;2024-01-27T07:24:34;23.40;;;13.88;;
33403;SDS011;19751;40.274;18.268;2024-01-27T07:27:00;23.50;;;16.48;;
33403;SDS011;19751;40.274;18.268;2024-01-27T07:29:27;26.52;;;17.33;;
33403;SDS011;19751;40.274;18.268;2024-01-27T07:31:53;24.70;;;16.02;;
33403;SDS011;19751;40.274;18.268;2024-01-27T07:34:19;24.67;;;15.40;;
33403;SDS011;19751;40.274;18.268;2024-01-27T07:36:45;26.15;;;17.65;;
33403;SDS011;19751;40.274;18.268;2024-01-27T07:39:10;24.15;;;14.93;;
33403;SDS011;19751;40.274;18.268;2024-01-27T07:41:37;23.05;;;15.52;;
33403;SDS011;19751;40.274;18.268;2024-01-27T07:44:11;22.10;;;14.43;;
33403;SDS011;19751;40.274;18.268;2024-01-27T07:46:38;24.42;;;14.90;;
33403;SDS011;19751;40.274;18.268;2024-01-27T07:49:09;24.10;;;14.15;;
33403;SDS011;19751;40.274;18.268;2024-01-27T07:51:38;33.17;;;16.80;;
33403;SDS011;19751;40.274;18.268;2024-01-27T07:54:03;20.13;;;13.48;;
33403;SDS011;19751;40.274;18.268;2024-01-27T07:56:29;20.63;;;12.38;;
33403;SDS011;19751;40.274;18.268;2024-01-27T07:58:54;21.95;;;14.35;;
33403;SDS011;19751;40.274;18.268;2024-01-27T08:01:20;21.77;;;13.88;;
33403;SDS011;19751;40.274;18.268;2024-01-27T08:03:46;18.60;;;12.27;;
33403;SDS011;19751;40.274;18.268;2024-01-27T08:06:15;24.75;;;14.02;;
33403;SDS011;19751;40.274;18.268;2024-01-27T08:08:48;22.17;;;12.40;;
33403;SDS011;19751;40.274;18.268;2024-01-27T08:11:14;22.67;;;14.80;;
33403;SDS011;19751;40.274;18.268;2024-01-27T08:13:41;18.88;;;12.40;;
33403;SDS011;19751;40.274;18.268;2024-01-27T08:16:07;26.08;;;15.85;;
33403;SDS011;19751;40.274;18.268;2024-01-27T08:18:40;23.35;;;13.88;;
33403;SDS011;19751;40.274;18.268;2024-01-27T08:21:07;27.75;;;15.73;;
33403;SDS011;19751;40.274;18.268;2024-01-27T08:23:33;25.83;;;14.90;;
33403;SDS011;19751;40.274;18.268;2024-01-27T08:25:59;24.25;;;15.07;;
33403;SDS011;19751;40.274;18.268;2024-01-27T08:28:25;24.05;;;14.45;;
33403;SDS011;19751;40.274;18.268;2024-01-27T08:30:50;26.90;;;15.38;;
33403;SDS011;19751;40.274;18.268;2024-01-27T08:33:16;22.63;;;12.73;;
33403;SDS011;19751;40.274;18.268;2024-01-27T08:35:41;23.13;;;13.85;;
33403;SDS011;19751;40.274;18.268;2024-01-27T08:38:07;21.08;;;13.52;;
33403;SDS011;19751;40.274;18.268;2024-01-27T08:40:34;19.50;;;11.85;;
33403;SDS011;19751;40.274;18.268;2024-01-27T08:43:01;21.08;;;14.20;;
33403;SDS011;19751;40.274;18.268;2024-01-27T08:45:27;27.45;;;16.50;;
33403;SDS011;19751;40.274;18.268;2024-01-27T08:47:53;26.35;;;14.38;;
33403;SDS011;19751;40.274;18.268;2024-01-27T08:50:18;19.75;;;12.52;;
33403;SDS011;19751;40.274;18.268;2024-01-27T08:52:44;28.42;;;13.60;;
33403;SDS011;19751;40.274;18.268;2024-01-27T08:55:11;19.52;;;13.30;;
33403;SDS011;19751;40.274;18.268;2024-01-27T08:57:37;21.20;;;12.48;;
33403;SDS011;19751;40.274;18.268;2024-01-27T09:00:02;39.70;;;15.48;;
33403;SDS011;19751;40.274;18.268;2024-01-27T09:02:29;28.25;;;13.40;;
33403;SDS011;19751;40.274;18.268;2024-01-27T09:04:54;20.42;;;13.15;;
33403;SDS011;19751;40.274;18.268;2024-01-27T09:07:21;23.77;;;14.07;;
33403;SDS011;19751;40.274;18.268;2024-01-27T09:09:46;19.38;;;12.82;;
33403;SDS011;19751;40.274;18.268;2024-01-27T09:12:12;17.40;;;13.20;;
33403;SDS011;19751;40.274;18.268;2024-01-27T09:14:38;28.00;;;16.65;;
33403;SDS011;19751;40.274;18.268;2024-01-27T09:17:04;28.40;;;17.20;;
33403;SDS011;19751;40.274;18.268;2024-01-27T09:19:29;30.88;;;17.10;;
33403;SDS011;19751;40.274;18.268;2024-01-27T09:21:55;27.73;;;15.45;;
33403;SDS011;19751;40.274;18.268;2024-01-27T09:24:20;28.00;;;16.73;;
33403;SDS011;19751;40.274;18.268;2024-01-27T09:26:47;19.38;;;13.38;;
33403;SDS011;19751;40.274;18.268;2024-01-27T09:29:12;20.83;;;13.93;;
33403;SDS011;19751;40.274;18.268;2024-01-27T09:31:39;17.75;;;11.23;;
33403;SDS011;19751;40.274;18.268;2024-01-27T09:34:04;16.10;;;9.25;;
33403;SDS011;19751;40.274;18.268;2024-01-27T09:36:30;15.48;;;7.47;;
33403;SDS011;19751;40.274;18.268;2024-01-27T09:38:56;13.23;;;8.23;;
33403;SDS011;19751;40.274;18.268;2024-01-27T09:41:21;23.63;;;9.60;;
33403;SDS011;19751;40.274;18.268;2024-01-27T09:43:47;13.63;;;7.93;;
33403;SDS011;19751;40.274;18.268;2024-01-27T09:46:13;11.68;;;8.48;;
33403;SDS011;19751;40.274;18.268;2024-01-27T09:48:40;18.73;;;9.77;;
33403;SDS011;19751;40.274;18.268;2024-01-27T09:51:07;14.00;;;9.55;;
33403;SDS011;19751;40.274;18.268;2024-01-27T09:53:35;14.35;;;8.75;;
33403;SDS011;19751;40.274;18.268;2024-01-27T09:56:01;20.63;;;9.40;;
33403;SDS011;19751;40.274;18.268;2024-01-27T09:58:29;19.55;;;11.32;;
33403;SDS011;19751;40.274;18.268;2024-01-27T10:00:59;12.80;;;8.98;;
33403;SDS011;19751;40.274;18.268;2024-01-27T10:03:26;20.58;;;10.35;;
33403;SDS011;19751;40.274;18.268;2024-01-27T10:05:53;13.25;;;9.30;;
33403;SDS011;19751;40.274;18.268;2024-01-27T10:08:20;23.50;;;11.60;;
33403;SDS011;19751;40.274;18.268;2024-01-27T10:10:47;16.15;;;9.45;;
33403;SDS011;19751;40.274;18.268;2024-01-27T10:13:14;20.63;;;10.75;;
33403;SDS011;19751;40.274;18.268;2024-01-27T10:15:42;17.77;;;9.75;;
33403;SDS011;19751;40.274;18.268;2024-01-27T10:18:08;16.55;;;9.65;;
33403;SDS011;19751;40.274;18.268;2024-01-27T10:20:39;15.00;;;9.43;;
33403;SDS011;19751;40.274;18.268;2024-01-27T10:23:11;16.15;;;9.80;;
33403;SDS011;19751;40.274;18.268;2024-01-27T10:25:38;16.90;;;8.57;;
33403;SDS011;19751;40.274;18.268;2024-01-27T10:28:06;15.82;;;8.93;;
33403;SDS011;19751;40.274;18.268;2024-01-27T10:30:33;17.60;;;10.10;;
33403;SDS011;19751;40.274;18.268;2024-01-27T10:32:59;16.65;;;9.93;;
33403;SDS011;19751;40.274;18.268;2024-01-27T10:35:25;21.52;;;12.40;;
33403;SDS011;19751;40.274;18.268;2024-01-27T10:37:52;18.88;;;11.38;;
33403;SDS011;19751;40.274;18.268;2024-01-27T10:40:19;20.42;;;11.50;;
33403;SDS011;19751;40.274;18.268;2024-01-27T10:42:45;21.05;;;10.40;;
33403;SDS011;19751;40.274;18.268;2024-01-27T10:45:12;20.15;;;10.82;;
33403;SDS011;19751;40.274;18.268;2024-01-27T10:47:38;15.77;;;10.05;;
33403;SDS011;19751;40.274;18.268;2024-01-27T10:50:08;17.98;;;10.52;;
33403;SDS011;19751;40.274;18.268;2024-01-27T10:52:37;17.02;;;10.20;;
33403;SDS011;19751;40.274;18.268;2024-01-27T10:55:06;16.90;;;10.43;;
33403;SDS011;19751;40.274;18.268;2024-01-27T10:57:36;19.60;;;10.23;;
33403;SDS011;19751;40.274;18.268;2024-01-27T11:00:05;15.63;;;9.30;;
33403;SDS011;19751;40.274;18.268;2024-01-27T11:02:35;17.25;;;9.98;;
33403;SDS011;19751;40.274;18.268;2024-01-27T11:05:04;21.20;;;10.82;;
33403;SDS011;19751;40.274;18.268;2024-01-27T11:07:32;11.15;;;8.75;;
33403;SDS011;19751;40.274;18.268;2024-01-27T11:09:59;18.65;;;10.98;;
33403;SDS011;19751;40.274;18.268;2024-01-27T11:12:25;20.58;;;11.35;;
33403;SDS011;19751;40.274;18.268;2024-01-27T11:14:52;23.42;;;10.68;;
33403;SDS011;19751;40.274;18.268;2024-01-27T11:17:18;23.10;;;11.10;;
33403;SDS011;19751;40.274;18.268;2024-01-27T11:19:45;16.98;;;10.80;;
33403;SDS011;19751;40.274;18.268;2024-01-27T11:22:45;22.92;;;10.95;;
33403;SDS011;19751;40.274;18.268;2024-01-27T11:25:08;18.55;;;10.63;;
33403;SDS011;19751;40.274;18.268;2024-01-27T11:27:44;15.57;;;10.68;;
33403;SDS011;19751;40.274;18.268;2024-01-27T11:32:53;23.40;;;11.18;;
33403;SDS011;19751;40.274;18.268;2024-01-27T11:35:29;16.35;;;10.95;;
33403;SDS011;19751;40.274;18.268;2024-01-27T11:37:54;18.02;;;10.90;;
33403;SDS011;19751;40.274;18.268;2024-01-27T11:40:20;22.13;;;11.18;;
33403;SDS011;19751;40.274;18.268;2024-01-27T11:42:55;20.52;;;9.88;;
33403;SDS011;19751;40.274;18.268;2024-01-27T11:45:22;24.25;;;10.98;;
33403;SDS011;19751;40.274;18.268;2024-01-27T11:47:47;23.23;;;11.68;;
33403;SDS011;19751;40.274;18.268;2024-01-27T11:50:14;20.42;;;11.13;;
33403;SDS011;19751;40.274;18.268;2024-01-27T11:52:42;24.65;;;11.73;;
33403;SDS011;19751;40.274;18.268;2024-01-27T11:55:08;18.60;;;9.80;;
33403;SDS011;19751;40.274;18.268;2024-01-27T11:57:34;20.48;;;10.00;;
33403;SDS011;19751;40.274;18.268;2024-01-27T11:59:59;20.05;;;10.32;;
33403;SDS011;19751;40.274;18.268;2024-01-27T12:02:25;19.40;;;10.45;;
33403;SDS011;19751;40.274;18.268;2024-01-27T12:04:50;18.35;;;10.95;;
33403;SDS011;19751;40.274;18.268;2024-01-27T12:07:17;22.42;;;11.50;;
33403;SDS011;19751;40.274;18.268;2024-01-27T12:09:46;26.35;;;11.77;;
33403;SDS011;19751;40.274;18.268;2024-01-27T12:12:13;17.65;;;10.40;;
33403;SDS011;19751;40.274;18.268;2024-01-27T12:17:12;16.70;;;10.95;;
33403;SDS011;19751;40.274;18.268;2024-01-27T12:19:38;23.15;;;11.68;;
33403;SDS011;19751;40.274;18.268;2024-01-27T12:22:04;29.05;;;11.60;;
33403;SDS011;19751;40.274;18.268;2024-01-27T12:24:45;20.30;;;11.80;;
33403;SDS011;19751;40.274;18.268;2024-01-27T12:27:11;19.80;;;12.20;;
33403;SDS011;19751;40.274;18.268;2024-01-27T12:29:37;20.75;;;10.95;;
33403;SDS011;19751;40.274;18.268;2024-01-27T12:32:02;22.20;;;12.05;;
33403;SDS011;19751;40.274;18.268;2024-01-27T12:34:28;19.80;;;11.43;;
33403;SDS011;19751;40.274;18.268;2024-01-27T12:36:54;28.63;;;12.02;;
33403;SDS011;19751;40.274;18.268;2024-01-27T12:39:21;21.70;;;12.20;;
33403;SDS011;19751;40.274;18.268;2024-01-27T12:41:47;20.50;;;12.48;;
33403;SDS011;19751;40.274;18.268;2024-01-27T12:44:12;18.00;;;12.43;;
33403;SDS011;19751;40.274;18.268;2024-01-27T12:46:38;23.05;;;11.75;;
33403;SDS011;19751;40.274;18.268;2024-01-27T12:49:04;24.20;;;10.90;;
33403;SDS011;19751;40.274;18.268;2024-01-27T12:51:30;26.45;;;11.32;;
33403;SDS011;19751;40.274;18.268;2024-01-27T12:53:56;18.38;;;12.00;;
33403;SDS011;19751;40.274;18.268;2024-01-27T12:56:21;18.55;;;11.30;;
33403;SDS011;19751;40.274;18.268;2024-01-27T12:58:47;20.88;;;11.20;;
33403;SDS011;19751;40.274;18.268;2024-01-27T13:01:13;20.05;;;11.10;;
33403;SDS011;19751;40.274;18.268;2024-01-27T13:03:39;21.90;;;10.80;;
33403;SDS011;19751;40.274;18.268;2024-01-27T13:06:04;26.50;;;12.90;;
33403;SDS011;19751;40.274;18.268;2024-01-27T13:08:30;22.88;;;13.88;;
33403;SDS011;19751;40.274;18.268;2024-01-27T13:10:56;20.17;;;11.93;;
33403;SDS011;19751;40.274;18.268;2024-01-27T13:13:22;27.48;;;13.55;;
33403;SDS011;19751;40.274;18.268;2024-01-27T13:15:47;20.40;;;12.02;;
33403;SDS011;19751;40.274;18.268;2024-01-27T13:18:13;23.15;;;12.65;;
33403;SDS011;19751;40.274;18.268;2024-01-27T13:20:38;19.65;;;11.35;;
33403;SDS011;19751;40.274;18.268;2024-01-27T13:23:05;20.35;;;12.48;;
33403;SDS011;19751;40.274;18.268;2024-01-27T13:25:32;20.45;;;12.55;;
33403;SDS011;19751;40.274;18.268;2024-01-27T13:27:58;24.95;;;12.82;;
33403;SDS011;19751;40.274;18.268;2024-01-27T13:30:24;24.45;;;13.40;;
33403;SDS011;19751;40.274;18.268;2024-01-27T13:32:50;21.98;;;11.50;;
33403;SDS011;19751;40.274;18.268;2024-01-27T13:35:16;19.30;;;10.95;;
33403;SDS011;19751;40.274;18.268;2024-01-27T13:37:41;26.15;;;12.57;;
33403;SDS011;19751;40.274;18.268;2024-01-27T13:40:07;27.92;;;13.07;;
33403;SDS011;19751;40.274;18.268;2024-01-27T13:42:35;18.08;;;11.73;;
33403;SDS011;19751;40.274;18.268;2024-01-27T13:45:01;25.02;;;11.52;;
33403;SDS011;19751;40.274;18.268;2024-01-27T13:47:27;18.65;;;11.63;;
33403;SDS011;19751;40.274;18.268;2024-01-27T13:49:53;15.15;;;9.90;;
33403;SDS011;19751;40.274;18.268;2024-01-27T13:52:19;28.05;;;12.93;;
33403;SDS011;19751;40.274;18.268;2024-01-27T13:54:45;22.55;;;12.18;;
33403;SDS011;19751;40.274;18.268;2024-01-27T13:57:10;25.23;;;12.18;;
33403;SDS011;19751;40.274;18.268;2024-01-27T13:59:36;17.98;;;12.23;;
33403;SDS011;19751;40.274;18.268;2024-01-27T14:02:02;20.25;;;10.90;;
33403;SDS011;19751;40.274;18.268;2024-01-27T14:04:28;24.05;;;12.77;;
33403;SDS011;19751;40.274;18.268;2024-01-27T14:06:54;18.25;;;11.73;;
33403;SDS011;19751;40.274;18.268;2024-01-27T14:09:21;21.70;;;11.02;;
33403;SDS011;19751;40.274;18.268;2024-01-27T14:11:50;24.02;;;12.75;;